Time;durP1;ratioP1;P1;durP2;ratioP2;P2;SDS_P1;SDS_P2;PMS_P1;PMS_P2;Temp;Humidity;BMP_temperature;BMP_pressure;BME280_temperature;BME280_humidity;BME280_pressure;Samples;Min_cycle;Max_cycle;Signal;HPM_P1;HPM_P2
2022/09/25 00:02:01;;;;;;;;;;;12.80;99.90;;;;;;5052636;28;20238;-93
2022/09/25 00:04:27;;;;;;;;;;;12.80;99.90;;;;;;5032588;28;19933;-93
2022/09/25 00:06:52;;;;;;;;;;;12.80;99.90;;;;;;5030171;28;20308;-92
2022/09/25 00:09:20;;;;;;;;;;;12.80;99.90;;;;;;5035492;28;19913;-92
2022/09/25 00:11:45;;;;;;;;;;;12.80;99.90;;;;;;5035331;28;19908;-92
2022/09/25 00:14:11;;;;;;;;;;;12.80;99.90;;;;;;5052814;28;20399;-92
2022/09/25 00:16:36;;;;;;;;;;;12.80;99.90;;;;;;5055266;28;20318;-92
2022/09/25 00:21:51;;;;;;;;;;;12.80;99.90;;;;;;5054340;28;19982;-93
2022/09/25 00:24:17;;;;;;;;;;;12.80;99.90;;;;;;5036889;28;20369;-93
2022/09/25 00:26:42;;;;;;;;;;;12.80;99.90;;;;;;5034615;28;19915;-92
2022/09/25 00:29:11;;;;;;;;;;;12.80;99.90;;;;;;5030366;28;19939;-92
2022/09/25 00:31:36;;;;;;;;;;;12.80;99.90;;;;;;5037192;28;19908;-92
2022/09/25 00:34:02;;;;;;;;;;;12.80;99.90;;;;;;5036320;28;20410;-92
2022/09/25 00:36:30;;;;;;;;;;;12.70;99.90;;;;;;5052574;28;19909;-92
2022/09/25 00:38:55;;;;;;;;;;;12.70;99.90;;;;;;5036781;28;20430;-92
2022/09/25 00:41:22;;;;;;;;;;;12.70;99.90;;;;;;5033779;28;19909;-92
2022/09/25 00:43:49;;;;;;;;;;;12.70;99.90;;;;;;5035875;28;19920;-92
2022/09/25 00:46:17;;;;;;;;;;;12.70;99.90;;;;;;5054855;28;19909;-92
2022/09/25 00:49:06;;;;;;;;;;;12.70;99.90;;;;;;5037001;28;19928;-92
2022/09/25 00:51:49;;;;;;;;;;;12.70;99.90;;;;;;5042594;28;19909;-92
2022/09/25 00:54:16;;;;;;;;;;;12.70;99.90;;;;;;5031242;28;19913;-92
2022/09/25 00:56:43;;;;;;;;;;;12.60;99.90;;;;;;5036137;28;19917;-93
2022/09/25 00:59:12;;;;;;;;;;;12.70;99.90;;;;;;5029114;28;19945;-93
2022/09/25 01:01:38;;;;;;;;;;;12.70;99.90;;;;;;5028903;28;20289;-93
2022/09/25 01:04:04;;;;;;;;;;;12.60;99.90;;;;;;5038033;28;19920;-93
2022/09/25 01:06:30;;;;;;;;;;;12.60;99.90;;;;;;5037632;28;19909;-92
2022/09/25 01:08:56;;;;;;;;;;;12.70;99.90;;;;;;5039715;28;20471;-92
2022/09/25 01:11:22;;;;;;;;;;;12.60;99.90;;;;;;5039848;28;19912;-92
2022/09/25 01:13:48;;;;;;;;;;;12.70;99.90;;;;;;5048102;28;20003;-92
2022/09/25 01:16:22;;;;;;;;;;;12.70;99.90;;;;;;5038448;28;19909;-92
2022/09/25 01:18:48;;;;;;;;;;;12.60;99.90;;;;;;5039322;28;19939;-93
2022/09/25 01:21:29;;;;;;;;;;;12.60;99.90;;;;;;5029620;28;19991;-93
2022/09/25 01:24:13;;;;;;;;;;;12.60;99.90;;;;;;5035139;28;19947;-92
2022/09/25 01:26:39;;;;;;;;;;;12.60;99.90;;;;;;5032650;28;19982;-92
2022/09/25 01:29:20;;;;;;;;;;;12.50;99.90;;;;;;5032504;28;19909;-92
2022/09/25 01:32:05;;;;;;;;;;;12.60;99.90;;;;;;5035310;28;19921;-93
2022/09/25 01:34:47;;;;;;;;;;;12.70;99.90;;;;;;5054191;28;19909;-92
2022/09/25 01:37:33;;;;;;;;;;;12.60;99.90;;;;;;5028983;28;19916;-92
2022/09/25 01:40:04;;;;;;;;;;;12.50;99.90;;;;;;5029607;28;19916;-93
2022/09/25 01:42:35;;;;;;;;;;;12.60;99.90;;;;;;5051562;28;19923;-92
2022/09/25 01:45:06;;;;;;;;;;;12.60;99.90;;;;;;5037757;28;20342;-92
2022/09/25 01:47:36;;;;;;;;;;;12.60;99.90;;;;;;5021387;28;19917;-92
2022/09/25 01:50:07;;;;;;;;;;;12.60;99.90;;;;;;5055666;28;19920;-92
2022/09/25 01:52:39;;;;;;;;;;;12.60;99.90;;;;;;5036647;28;19947;-93
2022/09/25 01:55:16;;;;;;;;;;;12.50;99.90;;;;;;5039743;28;19913;-93
2022/09/25 01:57:48;;;;;;;;;;;12.40;99.90;;;;;;5033769;28;19913;-93
2022/09/25 02:00:16;;;;;;;;;;;12.30;99.90;;;;;;5051002;28;19909;-92
2022/09/25 02:02:45;;;;;;;;;;;12.20;99.90;;;;;;5039784;28;19919;-92
2022/09/25 02:05:18;;;;;;;;;;;12.10;99.90;;;;;;5037862;28;20387;-92
2022/09/25 02:07:44;;;;;;;;;;;;;;;;;;5039361;28;19908;-92
2022/09/25 02:10:10;;;;;;;;;;;;;;;;;;5036765;28;19913;-92
2022/09/25 02:12:36;;;;;;;;;;;;;;;;;;5044450;28;19908;-92
2022/09/25 02:15:01;;;;;;;;;;;;;;;;;;5025847;28;19967;-92
2022/09/25 02:20:30;;;;;;;;;;;;;;;;;;5054931;28;19959;-92
2022/09/25 02:22:56;;;;;;;;;;;;;;;;;;5032393;28;19963;-92
2022/09/25 02:25:22;;;;;;;;;;;;;;;;;;5055136;28;20334;-92
2022/09/25 02:27:48;;;;;;;;;;;;;;;;;;5026156;28;19909;-92
2022/09/25 02:30:14;;;;;;;;;;;;;;;;;;5035889;28;19909;-92
2022/09/25 02:32:40;;;;;;;;;;;;;;;;;;5031714;28;19920;-92
2022/09/25 02:35:06;;;;;;;;;;;;;;;;;;5039233;28;19909;-93
2022/09/25 02:37:32;;;;;;;;;;;;;;;;;;5031608;28;19909;-93
2022/09/25 02:39:58;;;;;;;;;;;;;;;;;;5035630;28;19912;-93
2022/09/25 02:42:23;;;;;;;;;;;;;;;;;;5039089;28;19962;-92
2022/09/25 02:44:49;;;;;;;;;;;;;;;;;;5028806;28;19984;-92
2022/09/25 02:47:15;;;;;;;;;;;;;;;;;;5037347;28;19920;-92
2022/09/25 02:49:41;;;;;;;;;;;;;;;;;;5034344;28;19944;-92
2022/09/25 02:52:07;;;;;;;;;;;;;;;;;;5036337;28;19908;-92
2022/09/25 02:54:33;;;;;;;;;;;;;;;;;;5031109;28;19909;-92
2022/09/25 02:56:59;;;;;;;;;;;;;;;;;;5038444;28;20284;-92
2022/09/25 02:59:25;;;;;;;;;;;;;;;;;;5038020;28;19916;-92
2022/09/25 03:01:51;;;;;;;;;;;;;;;;;;5036122;28;19909;-92
2022/09/25 03:04:18;;;;;;;;;;;;;;;;;;5035606;28;19916;-92
2022/09/25 03:06:44;;;;;;;;;;;;;;;;;;5031105;28;20291;-92
2022/09/25 03:09:09;;;;;;;;;;;;;;;;;;5039175;28;19908;-93
2022/09/25 03:11:40;;;;;;;;;;;;;;;;;;5025588;28;19909;-92
2022/09/25 03:14:06;;;;;;;;;;;;;;;;;;5031613;28;19909;-93
2022/09/25 03:16:33;;;;;;;;;;;;;;;;;;5034234;28;19916;-92
2022/09/25 03:18:59;;;;;;;;;;;;;;;;;;5029433;28;19932;-93
2022/09/25 03:21:24;;;;;;;;;;;;;;;;;;5028741;28;20005;-94
2022/09/25 03:23:50;;;;;;;;;;;;;;;;;;5040079;28;19919;-95
2022/09/25 03:26:16;;;;;;;;;;;;;;;;;;5050054;28;20323;-93
2022/09/25 03:28:42;;;;;;;;;;;;;;;;;;5042585;28;20360;-91
2022/09/25 03:31:09;;;;;;;;;;;;;;;;;;5031429;28;19932;-92
2022/09/25 03:33:35;;;;;;;;;;;;;;;;;;5027392;28;19921;-91
2022/09/25 03:36:00;;;;;;;;;;;;;;;;;;5047256;28;19909;-90
2022/09/25 03:38:26;;;;;;;;;;;;;;;;;;5054055;28;19967;-90
2022/09/25 03:40:52;;;;;;;;;;;;;;;;;;5029117;28;19960;-90
2022/09/25 03:43:18;;;;;;;;;;;;;;;;;;5037645;28;19913;-90
2022/09/25 03:45:44;;;;;;;;;;;;;;;;;;5036968;28;20281;-90
2022/09/25 03:48:10;;;;;;;;;;;;;;;;;;5037915;28;19967;-90
2022/09/25 03:50:38;;;;;;;;;;;;;;;;;;5033753;28;19914;-90
2022/09/25 03:53:03;;;;;;;;;;;;;;;;;;5047621;28;19916;-91
2022/09/25 03:55:29;;;;;;;;;;;;;;;;;;5036699;28;19909;-90
2022/09/25 03:57:55;;;;;;;;;;;;;;;;;;5025937;28;19917;-90
2022/09/25 04:00:22;;;;;;;;;;;;;;;;;;5032389;28;19932;-91
2022/09/25 04:02:49;;;;;;;;;;;;;;;;;;5052541;28;19956;-91
2022/09/25 04:05:15;;;;;;;;;;;;;;;;;;5035701;28;19912;-91
2022/09/25 04:07:41;;;;;;;;;;;;;;;;;;5051376;28;19912;-91
2022/09/25 04:10:07;;;;;;;;;;;;;;;;;;5050812;28;19909;-91
2022/09/25 04:12:32;;;;;;;;;;;;;;;;;;5032768;28;19923;-90
2022/09/25 04:14:58;;;;;;;;;;;;;;;;;;5035141;28;20023;-90
2022/09/25 04:17:24;;;;;;;;;;;;;;;;;;5035320;28;19924;-90
2022/09/25 04:19:51;;;;;;;;;;;;;;;;;;5034193;28;19913;-91
2022/09/25 04:22:17;;;;;;;;;;;;;;;;;;5031952;28;19913;-91
2022/09/25 04:24:49;;;;;;;;;;;;;;;;;;5035213;28;20391;-91
2022/09/25 04:27:16;;;;;;;;;;;;;;;;;;5033719;28;19909;-90
2022/09/25 04:29:42;;;;;;;;;;;;;;;;;;5028433;28;19955;-90
2022/09/25 04:34:52;;;;;;;;;;;;;;;;;;5051624;28;20610;-91
2022/09/25 04:37:21;;;;;;;;;;;;;;;;;;5032775;28;19909;-90
2022/09/25 04:39:47;;;;;;;;;;;;;;;;;;5027464;28;20405;-90
2022/09/25 04:42:13;;;;;;;;;;;;;;;;;;5029888;28;19913;-90
2022/09/25 04:44:39;;;;;;;;;;;;;;;;;;5051147;28;19951;-90
2022/09/25 04:47:05;;;;;;;;;;;;;;;;;;5038229;28;20466;-90
2022/09/25 04:49:31;;;;;;;;;;;;;;;;;;5034617;28;19962;-91
2022/09/25 04:51:57;;;;;;;;;;;;;;;;;;5039543;28;20384;-91
2022/09/25 04:54:23;;;;;;;;;;;;;;;;;;5032004;28;19948;-91
2022/09/25 04:56:49;;;;;;;;;;;;;;;;;;5045761;28;19916;-90
2022/09/25 04:59:15;;;;;;;;;;;;;;;;;;5033074;28;20288;-90
2022/09/25 05:01:41;;;;;;;;;;;;;;;;;;5050000;28;20109;-90
2022/09/25 05:04:07;;;;;;;;;;;;;;;;;;5033059;28;19917;-91
2022/09/25 05:06:33;;;;;;;;;;;;;;;;;;5026311;28;19913;-91
2022/09/25 05:08:59;;;;;;;;;;;;;;;;;;5036475;28;19916;-90
2022/09/25 05:11:25;;;;;;;;;;;;;;;;;;5032724;28;20422;-90
2022/09/25 05:13:51;;;;;;;;;;;;;;;;;;5030368;28;19909;-90
2022/09/25 05:16:17;;;;;;;;;;;;;;;;;;5029283;28;19913;-90
2022/09/25 05:18:43;;;;;;;;;;;;;;;;;;5039404;28;20400;-90
2022/09/25 05:21:08;;;;;;;;;;;;;;;;;;5058187;28;19913;-90
2022/09/25 05:23:34;;;;;;;;;;;;;;;;;;5026805;28;19944;-90
2022/09/25 05:26:01;;;;;;;;;;;;;;;;;;5037791;28;19913;-91
2022/09/25 05:28:27;;;;;;;;;;;;;;;;;;5025776;28;19909;-90
2022/09/25 05:30:53;;;;;;;;;;;;;;;;;;5035512;28;19901;-90
2022/09/25 05:33:19;;;;;;;;;;;;;;;;;;5025703;28;20004;-91
2022/09/25 05:35:44;;;;;;;;;;;;;;;;;;5030599;28;19909;-91
2022/09/25 05:38:11;;;;;;;;;;;;;;;;;;5028733;28;19912;-90
2022/09/25 05:40:38;;;;;;;;;;;;;;;;;;5033627;28;19947;-91
2022/09/25 05:43:04;;;;;;;;;;;;;;;;;;5024888;28;19982;-91
2022/09/25 05:45:30;;;;;;;;;;;;;;;;;;5033202;28;20478;-91
2022/09/25 05:47:56;;;;;;;;;;;;;;;;;;5033848;28;19932;-90
2022/09/25 05:50:22;;;;;;;;;;;;;;;;;;5038743;28;19912;-91
2022/09/25 05:52:48;;;;;;;;;;;;;;;;;;5036664;28;20008;-90
2022/09/25 05:55:14;;;;;;;;;;;;;;;;;;5030819;28;19946;-91
2022/09/25 05:57:39;;;;;;;;;;;;;;;;;;5039427;28;19909;-90
2022/09/25 06:00:06;;;;;;;;;;;;;;;;;;5039467;28;19909;-90
2022/09/25 06:02:32;;;;;;;;;;;;;;;;;;5036267;28;19932;-88
2022/09/25 06:04:58;;;;;;;;;;;;;;;;;;5026938;28;19983;-88
2022/09/25 06:07:24;;;;;;;;;;;;;;;;;;5030908;28;19958;-89
2022/09/25 06:09:50;;;;;;;;;;;;;;;;;;5030779;28;19916;-88
2022/09/25 06:12:17;;;;;;;;;;;;;;;;;;5047571;28;19909;-88
2022/09/25 06:14:43;;;;;;;;;;;;;;;;;;5036428;28;19917;-88
2022/09/25 06:17:09;;;;;;;;;;;;;;;;;;5055394;28;19917;-88
2022/09/25 06:19:34;;;;;;;;;;;;;;;;;;5035401;28;19921;-89
2022/09/25 06:22:00;;;;;;;;;;;;;;;;;;5052325;28;19947;-88
2022/09/25 06:24:26;;;;;;;;;;;;;;;;;;5053068;28;20004;-89
2022/09/25 06:26:52;;;;;;;;;;;;;;;;;;5037011;28;20414;-88
2022/09/25 06:29:18;;;;;;;;;;;;;;;;;;5027005;28;19952;-88
2022/09/25 06:31:44;;;;;;;;;;;;;;;;;;5031924;28;19913;-88
2022/09/25 06:34:11;;;;;;;;;;;;;;;;;;5033880;28;19920;-88
2022/09/25 06:36:37;;;;;;;;;;;;;;;;;;5032359;28;19916;-88
2022/09/25 06:39:03;;;;;;;;;;;;;;;;;;5047908;28;20364;-88
2022/09/25 06:41:29;;;;;;;;;;;;;;;;;;5032653;28;19948;-88
2022/09/25 06:43:55;;;;;;;;;;;;;;;;;;5029059;28;19913;-88
2022/09/25 06:46:21;;;;;;;;;;;;;;;;;;5032348;28;19908;-88
2022/09/25 06:48:47;;;;;;;;;;;;;;;;;;5036892;28;20012;-88
2022/09/25 06:51:13;;;;;;;;;;;;;;;;;;5033594;28;20322;-89
2022/09/25 06:53:39;;;;;;;;;;;;;;;;;;5032130;28;19916;-88
2022/09/25 06:56:05;;;;;;;;;;;;;;;;;;5025922;28;20011;-89
2022/09/25 06:58:31;;;;;;;;;;;;;;;;;;5030510;28;19924;-87
2022/09/25 07:00:57;;;;;;;;;;;;;;;;;;5053112;28;19909;-88
2022/09/25 07:06:07;;;;;;;;;;;;;;;;;;5054020;28;19939;-88
2022/09/25 07:08:33;;;;;;;;;;;;;;;;;;5030735;28;19909;-89
2022/09/25 07:11:00;;;;;;;;;;;;;;;;;;5031076;28;20303;-89
2022/09/25 07:13:28;;;;;;;;;;;;;;;;;;5034819;28;20007;-89
2022/09/25 07:15:54;;;;;;;;;;;;;;;;;;5031840;28;20356;-88
2022/09/25 07:18:20;;;;;;;;;;;;;;;;;;5033104;28;19921;-89
2022/09/25 07:20:46;;;;;;;;;;;;;;;;;;5045968;28;19952;-88
2022/09/25 07:23:12;;;;;;;;;;;;;;;;;;5037017;28;19936;-88
2022/09/25 07:25:38;;;;;;;;;;;;;;;;;;5030193;28;19909;-88
2022/09/25 07:28:06;;;;;;;;;;;;;;;;;;5032410;28;19939;-88
2022/09/25 07:30:32;;;;;;;;;;;;;;;;;;5025303;28;19909;-87
2022/09/25 07:32:58;;;;;;;;;;;;;;;;;;5036852;28;19916;-88
2022/09/25 07:35:23;;;;;;;;;;;;;;;;;;5024440;28;19917;-88
2022/09/25 07:37:49;;;;;;;;;;;;;;;;;;5034966;28;20288;-88
2022/09/25 07:40:15;;;;;;;;;;;;;;;;;;5024008;28;19932;-88
2022/09/25 07:42:41;;;;;;;;;;;;;;;;;;5026902;28;19955;-88
2022/09/25 07:45:07;;;;;;;;;;;;;;;;;;5028314;28;19940;-88
2022/09/25 07:47:33;;;;;;;;;;;;;;;;;;5028957;28;19956;-88
2022/09/25 07:49:59;;;;;;;;;;;;;;;;;;5024479;28;20028;-87
2022/09/25 07:52:25;;;;;;;;;;;;;;;;;;5023886;28;19935;-88
2022/09/25 07:54:50;;;;;;;;;;;;;;;;;;5045064;28;19916;-88
2022/09/25 07:57:19;;;;;;;;;;;;;;;;;;5052774;28;19916;-88
2022/09/25 07:59:45;;;;;;;;;;;;;;;;;;5033368;28;20372;-88
2022/09/25 08:02:11;;;;;;;;;;;;;;;;;;5029971;28;19924;-88
2022/09/25 08:04:37;;;;;;;;;;;;;;;;;;5045682;28;19909;-88
2022/09/25 08:07:03;;;;;;;;;;;;;;;;;;5028287;28;19913;-88
2022/09/25 08:09:29;;;;;;;;;;;;;;;;;;5030692;28;19910;-88
2022/09/25 08:11:55;;;;;;;;;;;;;;;;;;5028972;28;19909;-88
2022/09/25 08:14:21;;;;;;;;;;;;;;;;;;5050877;28;19913;-88
2022/09/25 08:16:47;;;;;;;;;;;12.10;99.90;;;;;;5041653;28;19970;-88
2022/09/25 08:19:16;;;;;;;;;;;13.50;99.90;;;;;;5041659;28;19921;-88
2022/09/25 08:21:42;;;;;;;;;;;13.40;99.90;;;;;;5033331;28;19909;-88
2022/09/25 08:24:08;;;;;;;;;;;13.50;99.90;;;;;;5036484;28;19913;-87
2022/09/25 08:26:34;;;;;;;;;;;13.60;99.90;;;;;;5038146;28;20020;-87
2022/09/25 08:28:59;;;;;;;;;;;14.10;99.90;;;;;;5024732;28;20355;-88
2022/09/25 08:31:25;;;;;;;;;;;14.70;99.90;;;;;;5057353;28;19908;-88
2022/09/25 08:33:50;;;;;;;;;;;15.10;99.90;;;;;;5048968;28;20498;-88
2022/09/25 08:36:16;;;;;;;;;;;15.10;99.90;;;;;;5033381;28;20375;-88
2022/09/25 08:38:42;;;;;;;;;;;15.30;99.90;;;;;;5051576;28;19980;-88
2022/09/25 08:41:37;;;;;;;;;;;15.30;99.90;;;;;;5037439;28;19935;-88
2022/09/25 08:44:15;;;;;;;;;;;15.80;99.90;;;;;;5019938;28;19921;-88
2022/09/25 08:49:31;;;;;;;;;;;15.20;99.90;;;;;;5051990;28;19983;-88
2022/09/25 08:52:00;;;;;;;;;;;15.40;99.90;;;;;;5040674;28;20291;-88
2022/09/25 08:54:27;;;;;;;;;;;15.10;99.90;;;;;;5050641;28;20337;-88
2022/09/25 08:56:54;;;;;;;;;;;15.80;99.90;;;;;;5038871;28;19912;-88
2022/09/25 08:59:27;;;;;;;;;;;16.50;99.90;;;;;;5039292;28;19913;-88
2022/09/25 09:01:58;;;;;;;;;;;17.00;99.90;;;;;;5052342;28;19958;-88
2022/09/25 09:04:40;;;;;;;;;;;16.80;99.90;;;;;;5036621;28;20337;-88
2022/09/25 09:07:07;;;;;;;;;;;17.10;99.90;;;;;;5039521;28;19915;-88
2022/09/25 09:09:36;;;;;;;;;;;17.20;99.90;;;;;;5048364;28;19951;-88
2022/09/25 09:12:08;;;;;;;;;;;16.90;99.90;;;;;;5040189;28;19932;-88
2022/09/25 09:14:37;;;;;;;;;;;17.00;99.90;;;;;;5031150;28;19909;-88
2022/09/25 09:17:06;;;;;;;;;;;16.20;99.90;;;;;;5032745;28;19945;-88
2022/09/25 09:19:32;;;;;;;;;;;15.60;99.90;;;;;;5033829;28;19987;-88
2022/09/25 09:22:10;;;;;;;;;;;15.10;99.90;;;;;;5029401;28;19931;-88
2022/09/25 09:24:55;;;;;;;;;;;15.30;99.90;;;;;;5045972;28;20026;-88
2022/09/25 09:27:39;;;;;;;;;;;16.90;99.90;;;;;;5035087;28;20000;-88
2022/09/25 09:30:32;;;;;;;;;;;17.70;99.90;;;;;;5048464;28;19991;-88
2022/09/25 09:33:00;;;;;;;;;;;17.60;99.90;;;;;;5017012;28;19966;-88
2022/09/25 09:35:44;;;;;;;;;;;16.50;99.90;;;;;;5036812;28;20373;-88
2022/09/25 09:38:22;;;;;;;;;;;16.60;99.90;;;;;;5052359;28;19959;-88
2022/09/25 09:40:57;;;;;;;;;;;16.60;99.90;;;;;;5039034;28;20383;-88
2022/09/25 09:43:28;;;;;;;;;;;16.00;99.90;;;;;;5030351;28;19917;-88
2022/09/25 09:45:59;;;;;;;;;;;17.50;99.90;;;;;;5024577;28;19917;-88
2022/09/25 09:48:31;;;;;;;;;;;17.30;99.90;;;;;;5050170;28;19916;-88
2022/09/25 09:51:01;;;;;;;;;;;15.70;99.90;;;;;;5023569;28;20006;-88
2022/09/25 09:53:38;;;;;;;;;;;16.00;99.90;;;;;;5050333;28;20352;-88
2022/09/25 09:56:09;;;;;;;;;;;17.40;99.90;;;;;;5052126;28;19909;-88
2022/09/25 09:58:44;;;;;;;;;;;18.30;99.90;;;;;;5047169;28;19917;-88
2022/09/25 10:01:10;;;;;;;;;;;19.80;99.90;;;;;;5041848;28;19909;-89
2022/09/25 10:03:37;;;;;;;;;;;19.70;99.90;;;;;;5050508;28;19924;-88
2022/09/25 10:06:07;;;;;;;;;;;19.40;99.90;;;;;;5050976;28;19912;-88
2022/09/25 10:08:34;;;;;;;;;;;19.10;99.90;;;;;;5024418;28;20032;-88
2022/09/25 10:11:02;;;;;;;;;;;18.40;99.90;;;;;;5053452;28;19916;-88
2022/09/25 10:13:31;;;;;;;;;;;18.80;99.90;;;;;;5038987;28;19934;-88
2022/09/25 10:15:59;;;;;;;;;;;19.60;99.90;;;;;;5038164;28;19916;-88
2022/09/25 10:18:28;;;;;;;;;;;19.90;99.90;;;;;;5049479;28;19921;-88
2022/09/25 10:21:08;;;;;;;;;;;18.80;99.90;;;;;;5035814;28;20683;-88
2022/09/25 10:23:33;;;;;;;;;;;17.80;99.90;;;;;;5026837;28;19917;-88
2022/09/25 10:25:59;;;;;;;;;;;17.60;99.90;;;;;;5031206;28;20364;-88
2022/09/25 10:28:26;;;;;;;;;;;17.40;99.90;;;;;;5036718;28;19908;-88
2022/09/25 10:30:53;;;;;;;;;;;18.20;99.90;;;;;;5038363;28;19908;-88
2022/09/25 10:33:21;;;;;;;;;;;18.50;98.70;;;;;;5036815;28;20434;-88
2022/09/25 10:35:47;;;;;;;;;;;19.30;97.20;;;;;;5030262;28;19995;-89
2022/09/25 10:38:32;;;;;;;;;;;19.70;97.50;;;;;;5020876;28;19913;-88
2022/09/25 10:41:03;;;;;;;;;;;20.90;94.90;;;;;;5026385;28;19909;-89
2022/09/25 10:43:29;;;;;;;;;;;20.30;95.20;;;;;;5037266;28;20482;-89
2022/09/25 10:46:06;;;;;;;;;;;20.10;96.20;;;;;;5052884;28;19951;-88
2022/09/25 10:51:19;;;;;;;;;;;20.70;95.50;;;;;;5051502;28;19924;-88
2022/09/25 10:53:50;;;;;;;;;;;20.70;94.10;;;;;;5037900;28;19909;-88
2022/09/25 10:56:34;;;;;;;;;;;22.00;91.50;;;;;;5035619;28;19909;-88
2022/09/25 10:59:01;;;;;;;;;;;19.20;95.10;;;;;;5049392;28;19999;-88
2022/09/25 11:01:31;;;;;;;;;;;18.30;96.30;;;;;;5051793;28;19908;-88
2022/09/25 11:03:57;;;;;;;;;;;18.60;96.90;;;;;;5035380;28;20423;-88
2022/09/25 11:06:24;;;;;;;;;;;19.40;95.70;;;;;;5046462;28;19921;-88
2022/09/25 11:09:06;;;;;;;;;;;19.30;95.00;;;;;;5037348;28;19913;-89
2022/09/25 11:11:32;;;;;;;;;;;21.00;94.40;;;;;;5033945;28;20435;-88
2022/09/25 11:13:59;;;;;;;;;;;21.30;93.20;;;;;;5035404;28;19908;-89
2022/09/25 11:16:44;;;;;;;;;;;21.00;93.20;;;;;;5036513;28;19909;-88
2022/09/25 11:19:11;;;;;;;;;;;20.40;94.30;;;;;;5022698;28;19932;-88
2022/09/25 11:21:48;;;;;;;;;;;19.20;96.30;;;;;;5036646;28;19912;-88
2022/09/25 11:24:13;;;;;;;;;;;19.20;97.90;;;;;;5047386;28;19917;-88
2022/09/25 11:26:45;;;;;;;;;;;19.60;95.00;;;;;;5037803;28;20043;-88
2022/09/25 11:29:20;;;;;;;;;;;19.40;95.10;;;;;;5026593;28;19909;-88
2022/09/25 11:32:05;;;;;;;;;;;20.40;95.10;;;;;;5035297;28;19909;-88
2022/09/25 11:34:39;;;;;;;;;;;21.90;91.10;;;;;;5029896;28;19909;-88
2022/09/25 11:37:07;;;;;;;;;;;21.40;90.90;;;;;;5035161;28;19913;-88
2022/09/25 11:42:49;;;;;;;;;;;19.70;93.80;;;;;;5056093;28;20394;-88
2022/09/25 11:45:35;;;;;;;;;;;18.80;97.40;;;;;;5029459;28;19915;-88
2022/09/25 11:48:21;;;;;;;;;;;18.00;98.00;;;;;;5042337;28;19919;-88
2022/09/25 11:51:08;;;;;;;;;;;19.60;93.00;;;;;;5031255;28;19913;-88
2022/09/25 11:53:41;;;;;;;;;;;20.00;91.90;;;;;;5034585;28;20415;-88
2022/09/25 11:56:16;;;;;;;;;;;20.30;90.60;;;;;;5039719;28;19910;-88
2022/09/25 11:58:41;;;;;;;;;;;21.00;91.00;;;;;;5032840;28;19909;-88
2022/09/25 12:01:16;;;;;;;;;;;21.90;87.80;;;;;;5024067;28;19909;-89
2022/09/25 12:03:57;;;;;;;;;;;21.70;88.20;;;;;;5033459;28;20287;-88
2022/09/25 12:06:28;;;;;;;;;;;21.40;88.20;;;;;;5035291;28;20010;-88
2022/09/25 12:09:09;;;;;;;;;;;20.90;86.40;;;;;;5036128;28;19909;-88
2022/09/25 12:11:44;;;;;;;;;;;19.20;90.00;;;;;;5049215;28;19913;-88
2022/09/25 12:14:09;;;;;;;;;;;19.10;91.50;;;;;;5021471;28;19917;-88
2022/09/25 12:16:44;;;;;;;;;;;19.80;91.30;;;;;;5024593;28;19920;-89
2022/09/25 12:19:25;;;;;;;;;;;21.10;88.60;;;;;;5040653;28;20405;-88
2022/09/25 12:22:03;;;;;;;;;;;22.10;87.50;;;;;;5018982;28;19917;-88
2022/09/25 12:24:47;;;;;;;;;;;22.50;84.10;;;;;;5036930;28;19967;-89
2022/09/25 12:27:18;;;;;;;;;;;22.50;85.30;;;;;;5025374;28;19925;-88
2022/09/25 12:30:13;;;;;;;;;;;22.90;83.50;;;;;;5034214;28;19913;-88
2022/09/25 12:33:01;;;;;;;;;;;21.50;84.20;;;;;;5007703;28;19909;-88
2022/09/25 12:36:02;;;;;;;;;;;20.50;84.60;;;;;;5033012;28;19916;-88
2022/09/25 12:38:46;;;;;;;;;;;20.70;83.70;;;;;;4966379;28;20370;-88
2022/09/25 12:41:35;;;;;;;;;;;19.90;85.50;;;;;;5020632;28;19913;-88
2022/09/25 12:44:04;;;;;;;;;;;18.80;85.50;;;;;;5039573;28;20292;-89
2022/09/25 12:46:45;;;;;;;;;;;19.30;86.10;;;;;;5033615;28;20008;-89
2022/09/25 12:49:13;;;;;;;;;;;20.20;83.20;;;;;;5035230;28;19952;-89
2022/09/25 12:51:45;;;;;;;;;;;20.50;83.30;;;;;;5032804;28;20344;-88
2022/09/25 12:54:16;;;;;;;;;;;21.30;83.10;;;;;;5034167;28;20361;-88
2022/09/25 12:56:50;;;;;;;;;;;21.80;81.10;;;;;;5021975;28;19960;-88
2022/09/25 12:59:18;;;;;;;;;;;22.00;81.60;;;;;;5027882;28;20367;-89
2022/09/25 13:01:46;;;;;;;;;;;22.20;82.10;;;;;;5033346;28;20004;-88
2022/09/25 13:04:17;;;;;;;;;;;22.80;80.20;;;;;;5028456;28;20116;-89
2022/09/25 13:06:51;;;;;;;;;;;21.90;81.10;;;;;;5024985;28;19921;-88
2022/09/25 13:09:31;;;;;;;;;;;22.00;81.80;;;;;;5028741;28;19917;-89
2022/09/25 13:12:07;;;;;;;;;;;22.70;82.70;;;;;;5025914;28;19910;-89
2022/09/25 13:14:51;;;;;;;;;;;22.20;82.40;;;;;;5034288;28;19980;-89
2022/09/25 13:17:16;;;;;;;;;;;22.60;79.90;;;;;;5036361;28;19925;-89
2022/09/25 13:19:42;;;;;;;;;;;22.30;77.90;;;;;;5038776;28;20339;-89
2022/09/25 13:22:11;;;;;;;;;;;22.00;80.70;;;;;;5028429;28;20380;-89
2022/09/25 13:24:38;;;;;;;;;;;22.10;81.20;;;;;;5036956;28;19909;-89
2022/09/25 13:27:05;;;;;;;;;;;21.70;78.00;;;;;;5030553;28;20280;-89
2022/09/25 13:29:34;;;;;;;;;;;21.70;78.80;;;;;;5046555;28;19915;-89
2022/09/25 13:32:06;;;;;;;;;;;23.60;75.40;;;;;;5035079;28;20008;-89
2022/09/25 13:34:38;;;;;;;;;;;24.60;72.60;;;;;;5026394;28;20395;-88
2022/09/25 13:37:05;;;;;;;;;;;23.30;74.70;;;;;;5040789;28;20284;-89
2022/09/25 13:42:21;;;;;;;;;;;23.50;74.40;;;;;;5049881;28;19977;-89
2022/09/25 13:44:48;;;;;;;;;;;23.00;74.70;;;;;;5030760;28;19955;-89
2022/09/25 13:47:23;;;;;;;;;;;22.30;76.90;;;;;;5052279;28;20277;-88
2022/09/25 13:50:08;;;;;;;;;;;22.50;77.10;;;;;;5030736;28;19963;-89
2022/09/25 13:52:37;;;;;;;;;;;22.20;74.50;;;;;;5025939;28;19931;-88
2022/09/25 13:55:12;;;;;;;;;;;22.10;73.50;;;;;;5027055;28;19913;-88
2022/09/25 13:57:57;;;;;;;;;;;22.30;75.40;;;;;;5049358;28;19970;-89
2022/09/25 14:00:43;;;;;;;;;;;22.30;76.40;;;;;;5035759;28;19959;-88
2022/09/25 14:03:29;;;;;;;;;;;20.90;74.70;;;;;;5026446;28;20020;-88
2022/09/25 14:05:54;;;;;;;;;;;21.00;76.80;;;;;;5035891;28;19980;-88
2022/09/25 14:08:20;;;;;;;;;;;20.00;79.20;;;;;;5032987;28;20369;-88
2022/09/25 14:10:48;;;;;;;;;;;19.00;82.70;;;;;;5043097;28;19913;-88
2022/09/25 14:13:15;;;;;;;;;;;18.90;83.30;;;;;;5026479;28;20376;-88
2022/09/25 14:15:41;;;;;;;;;;;18.70;83.10;;;;;;5031336;28;19940;-88
2022/09/25 14:18:12;;;;;;;;;;;18.30;83.80;;;;;;5034248;28;19921;-88
2022/09/25 14:20:41;;;;;;;;;;;18.20;83.60;;;;;;5027982;28;19914;-89
2022/09/25 14:23:14;;;;;;;;;;;18.00;83.20;;;;;;5032618;28;19928;-88
2022/09/25 14:25:43;;;;;;;;;;;17.60;85.50;;;;;;5035432;28;19909;-88
2022/09/25 14:28:17;;;;;;;;;;;17.70;84.70;;;;;;5026231;28;19944;-88
2022/09/25 14:31:01;;;;;;;;;;;17.60;86.90;;;;;;5038121;28;19919;-88
2022/09/25 14:33:44;;;;;;;;;;;17.90;86.80;;;;;;5024566;28;19909;-88
2022/09/25 14:36:28;;;;;;;;;;;17.50;87.90;;;;;;5027786;28;19910;-88
2022/09/25 14:39:05;;;;;;;;;;;17.40;90.30;;;;;;5023592;28;19913;-88
2022/09/25 14:41:42;;;;;;;;;;;17.50;91.40;;;;;;5031482;28;19936;-88
2022/09/25 14:44:26;;;;;;;;;;;17.30;90.90;;;;;;5032024;28;19914;-88
2022/09/25 14:46:53;;;;;;;;;;;16.90;90.60;;;;;;5024209;28;19913;-88
2022/09/25 14:49:27;;;;;;;;;;;17.00;90.20;;;;;;5028937;28;19917;-88
2022/09/25 14:51:54;;;;;;;;;;;17.00;90.40;;;;;;5035042;28;19909;-88
2022/09/25 14:54:21;;;;;;;;;;;17.40;90.90;;;;;;5032523;28;19932;-89
2022/09/25 14:56:49;;;;;;;;;;;17.70;91.00;;;;;;5025980;28;19917;-88
2022/09/25 14:59:27;;;;;;;;;;;18.60;89.90;;;;;;5035233;28;19916;-88
2022/09/25 15:01:53;;;;;;;;;;;18.40;90.00;;;;;;5027082;28;19916;-88
2022/09/25 15:04:26;;;;;;;;;;;18.80;88.10;;;;;;5028417;28;19913;-88
2022/09/25 15:07:07;;;;;;;;;;;18.10;88.60;;;;;;5033398;28;20654;-88
2022/09/25 15:09:46;;;;;;;;;;;18.50;85.70;;;;;;5023689;28;20902;-89
2022/09/25 15:12:15;;;;;;;;;;;20.00;82.40;;;;;;5023429;28;19916;-89
2022/09/25 15:14:55;;;;;;;;;;;20.50;77.90;;;;;;5028141;28;19910;-89
2022/09/25 15:17:22;;;;;;;;;;;20.60;75.50;;;;;;5031778;28;19917;-89
2022/09/25 15:19:47;;;;;;;;;;;21.30;76.60;;;;;;5034156;28;20059;-88
2022/09/25 15:22:18;;;;;;;;;;;21.50;74.90;;;;;;5021672;28;19956;-88
2022/09/25 15:24:47;;;;;;;;;;;20.60;77.20;;;;;;5029473;28;19932;-88
2022/09/25 15:27:15;;;;;;;;;;;20.20;75.60;;;;;;5026793;28;19914;-88
2022/09/25 15:29:42;;;;;;;;;;;19.80;79.30;;;;;;5030559;28;19979;-89
2022/09/25 15:32:15;;;;;;;;;;;19.30;79.40;;;;;;5021457;28;19916;-88
2022/09/25 15:34:42;;;;;;;;;;;18.60;83.20;;;;;;5019683;28;19941;-88
2022/09/25 15:37:24;;;;;;;;;;;17.80;84.00;;;;;;5031760;28;19920;-88
2022/09/25 15:39:50;;;;;;;;;;;17.80;86.30;;;;;;5026038;28;19913;-88
2022/09/25 15:42:15;;;;;;;;;;;17.70;90.80;;;;;;5031263;28;20001;-88
2022/09/25 15:44:43;;;;;;;;;;;17.50;88.80;;;;;;5025357;28;20386;-88
2022/09/25 15:47:31;;;;;;;;;;;17.10;90.30;;;;;;5027288;28;19941;-88
2022/09/25 15:49:57;;;;;;;;;;;16.90;90.20;;;;;;5024270;28;19913;-88